Main page
METAR-TAF:

METAR-TAF

Airports :

Bauru Airport

Bauru, São Paulo, Brazil

latitude: 22-19S, longitude: 049-04W, elevation: 590 m

Current weather observation

The report was made 4 hours and 59 minutes ago, at 21:00 UTC
Wind 4 kt from the Northeast
Temperature 29°C
Humidity 79%
Pressure 1014 hPa
Visibility 10 km or more
Scattered clouds at a height of 3500 ft

METAR: SBBU 172100Z 05004KT 9999 SCT035 29/25 Q1014

Time: 22:59 (01:59 UTC)

Forecast

The report was made 4 hours and 59 minutes ago, at 21:00 UTC
Forecast valid from 18 at 00 UTC to 18 at 12 UTC
Wind 8 kt from the East
Visibility 10 km or more
Scattered clouds at a height of 3500 ft
Temporary
from 18 at 02 UTC to 18 at 04 UTC
Visibility: 8000 m
Broken clouds at a height of 2000 ft
Few clouds at a height of 3000 ft, Cumulonimbus.
thunderstorm in vicinity

TAF: SBBU 172100Z 1800/1812 08008KT 9999 SCT035 TX26/1800Z TN24/1808Z TEMPO 1802/1804 8000 VCTS BKN020 FEW030CB RMK PDJ

Weather observations and forecasts of more than 4000 airports (METAR and TAF reports).

The available stations are represented by yellow and red dots on the map.

Hover mouse over dot to see the name of the station.

Then click to see weather observations and forecasts.

To change the map : click on the green buttons with a black cross to zoom in, on the green button with a dash to zoom out, or on the green arrows for adjacent maps.


METAR-TAF: